sensor_id;sensor_type;location;lat;lon;timestamp;P1;durP1;ratioP1;P2;durP2;ratioP2
4821;SDS011;2425;47.794;13.068;2023-04-24T00:02:21;1.60;;;1.50;;
4821;SDS011;2425;47.794;13.068;2023-04-24T00:04:49;8.87;;;1.80;;
4821;SDS011;2425;47.794;13.068;2023-04-24T00:07:16;1.40;;;1.30;;
4821;SDS011;2425;47.794;13.068;2023-04-24T00:09:45;2.30;;;1.30;;
4821;SDS011;2425;47.794;13.068;2023-04-24T00:12:12;1.87;;;1.77;;
4821;SDS011;2425;47.794;13.068;2023-04-24T00:14:41;1.40;;;1.40;;
4821;SDS011;2425;47.794;13.068;2023-04-24T00:17:08;4.60;;;1.60;;
4821;SDS011;2425;47.794;13.068;2023-04-24T00:19:35;2.40;;;1.87;;
4821;SDS011;2425;47.794;13.068;2023-04-24T00:22:02;1.80;;;1.70;;
4821;SDS011;2425;47.794;13.068;2023-04-24T00:24:30;1.73;;;1.50;;
4821;SDS011;2425;47.794;13.068;2023-04-24T00:26:57;1.27;;;1.17;;
4821;SDS011;2425;47.794;13.068;2023-04-24T00:29:27;1.20;;;1.20;;
4821;SDS011;2425;47.794;13.068;2023-04-24T00:31:56;1.73;;;1.63;;
4821;SDS011;2425;47.794;13.068;2023-04-24T00:34:23;1.40;;;1.40;;
4821;SDS011;2425;47.794;13.068;2023-04-24T00:36:50;4.13;;;1.97;;
4821;SDS011;2425;47.794;13.068;2023-04-24T00:39:17;1.33;;;1.30;;
4821;SDS011;2425;47.794;13.068;2023-04-24T00:41:44;1.23;;;1.23;;
4821;SDS011;2425;47.794;13.068;2023-04-24T00:44:12;1.80;;;1.80;;
4821;SDS011;2425;47.794;13.068;2023-04-24T00:46:39;1.47;;;1.47;;
4821;SDS011;2425;47.794;13.068;2023-04-24T00:49:08;1.57;;;1.50;;
4821;SDS011;2425;47.794;13.068;2023-04-24T00:51:35;7.93;;;1.50;;
4821;SDS011;2425;47.794;13.068;2023-04-24T00:54:02;1.53;;;1.43;;
4821;SDS011;2425;47.794;13.068;2023-04-24T00:56:30;1.20;;;1.20;;
4821;SDS011;2425;47.794;13.068;2023-04-24T00:58:57;1.47;;;1.47;;
4821;SDS011;2425;47.794;13.068;2023-04-24T01:01:25;3.80;;;3.53;;
4821;SDS011;2425;47.794;13.068;2023-04-24T01:03:52;1.27;;;1.17;;
4821;SDS011;2425;47.794;13.068;2023-04-24T01:06:21;1.40;;;1.40;;
4821;SDS011;2425;47.794;13.068;2023-04-24T01:08:49;1.50;;;1.50;;
4821;SDS011;2425;47.794;13.068;2023-04-24T01:11:16;1.50;;;1.50;;
4821;SDS011;2425;47.794;13.068;2023-04-24T01:13:44;1.43;;;1.23;;
4821;SDS011;2425;47.794;13.068;2023-04-24T01:16:12;1.73;;;1.37;;
4821;SDS011;2425;47.794;13.068;2023-04-24T01:18:40;1.20;;;1.10;;
4821;SDS011;2425;47.794;13.068;2023-04-24T01:21:07;2.67;;;1.57;;
4821;SDS011;2425;47.794;13.068;2023-04-24T01:23:36;1.47;;;1.37;;
4821;SDS011;2425;47.794;13.068;2023-04-24T01:26:03;2.60;;;1.20;;
4821;SDS011;2425;47.794;13.068;2023-04-24T01:28:31;1.20;;;1.20;;
4821;SDS011;2425;47.794;13.068;2023-04-24T01:30:58;1.40;;;1.40;;
4821;SDS011;2425;47.794;13.068;2023-04-24T01:33:25;1.20;;;1.20;;
4821;SDS011;2425;47.794;13.068;2023-04-24T01:35:52;1.43;;;1.23;;
4821;SDS011;2425;47.794;13.068;2023-04-24T01:38:20;1.53;;;1.40;;
4821;SDS011;2425;47.794;13.068;2023-04-24T01:40:48;1.83;;;1.43;;
4821;SDS011;2425;47.794;13.068;2023-04-24T01:43:16;1.53;;;1.50;;
4821;SDS011;2425;47.794;13.068;2023-04-24T01:45:43;1.10;;;1.10;;
4821;SDS011;2425;47.794;13.068;2023-04-24T01:48:11;1.33;;;1.33;;
4821;SDS011;2425;47.794;13.068;2023-04-24T01:50:38;1.27;;;1.27;;
4821;SDS011;2425;47.794;13.068;2023-04-24T01:53:05;1.57;;;1.47;;
4821;SDS011;2425;47.794;13.068;2023-04-24T01:55:32;1.07;;;1.03;;
4821;SDS011;2425;47.794;13.068;2023-04-24T01:58:01;1.43;;;1.43;;
4821;SDS011;2425;47.794;13.068;2023-04-24T02:00:28;1.60;;;1.50;;
4821;SDS011;2425;47.794;13.068;2023-04-24T02:02:55;1.20;;;1.20;;
4821;SDS011;2425;47.794;13.068;2023-04-24T02:05:22;1.30;;;1.30;;
4821;SDS011;2425;47.794;13.068;2023-04-24T02:07:49;1.33;;;1.33;;
4821;SDS011;2425;47.794;13.068;2023-04-24T02:10:16;1.10;;;1.10;;
4821;SDS011;2425;47.794;13.068;2023-04-24T02:12:43;1.53;;;1.43;;
4821;SDS011;2425;47.794;13.068;2023-04-24T02:15:11;1.37;;;1.20;;
4821;SDS011;2425;47.794;13.068;2023-04-24T02:17:38;1.27;;;1.27;;
4821;SDS011;2425;47.794;13.068;2023-04-24T02:20:05;1.20;;;1.20;;
4821;SDS011;2425;47.794;13.068;2023-04-24T02:22:33;2.27;;;1.47;;
4821;SDS011;2425;47.794;13.068;2023-04-24T02:25:00;9.53;;;1.27;;
4821;SDS011;2425;47.794;13.068;2023-04-24T02:27:26;1.30;;;1.20;;
4821;SDS011;2425;47.794;13.068;2023-04-24T02:29:53;1.37;;;1.37;;
4821;SDS011;2425;47.794;13.068;2023-04-24T02:32:21;1.30;;;1.20;;
4821;SDS011;2425;47.794;13.068;2023-04-24T02:34:48;1.00;;;0.90;;
4821;SDS011;2425;47.794;13.068;2023-04-24T02:37:15;1.60;;;1.50;;
4821;SDS011;2425;47.794;13.068;2023-04-24T02:39:41;1.30;;;1.20;;
4821;SDS011;2425;47.794;13.068;2023-04-24T02:42:08;1.17;;;1.17;;
4821;SDS011;2425;47.794;13.068;2023-04-24T02:44:35;1.10;;;1.10;;
4821;SDS011;2425;47.794;13.068;2023-04-24T02:47:02;1.07;;;1.07;;
4821;SDS011;2425;47.794;13.068;2023-04-24T02:49:30;1.17;;;1.17;;
4821;SDS011;2425;47.794;13.068;2023-04-24T02:51:56;1.20;;;1.20;;
4821;SDS011;2425;47.794;13.068;2023-04-24T02:54:23;1.60;;;1.47;;
4821;SDS011;2425;47.794;13.068;2023-04-24T02:56:50;1.40;;;1.30;;
4821;SDS011;2425;47.794;13.068;2023-04-24T02:59:17;1.10;;;1.10;;
4821;SDS011;2425;47.794;13.068;2023-04-24T03:01:43;2.57;;;1.00;;
4821;SDS011;2425;47.794;13.068;2023-04-24T03:04:10;1.10;;;1.07;;
4821;SDS011;2425;47.794;13.068;2023-04-24T03:06:38;1.20;;;1.10;;
4821;SDS011;2425;47.794;13.068;2023-04-24T03:09:05;1.20;;;1.20;;
4821;SDS011;2425;47.794;13.068;2023-04-24T03:11:31;1.27;;;1.17;;
4821;SDS011;2425;47.794;13.068;2023-04-24T03:13:58;1.10;;;1.10;;
4821;SDS011;2425;47.794;13.068;2023-04-24T03:16:25;1.77;;;1.67;;
4821;SDS011;2425;47.794;13.068;2023-04-24T03:18:51;1.47;;;1.40;;
4821;SDS011;2425;47.794;13.068;2023-04-24T03:21:18;1.20;;;1.10;;
4821;SDS011;2425;47.794;13.068;2023-04-24T03:23:46;1.50;;;1.40;;
4821;SDS011;2425;47.794;13.068;2023-04-24T03:26:13;1.20;;;1.20;;
4821;SDS011;2425;47.794;13.068;2023-04-24T03:28:40;1.03;;;1.03;;
4821;SDS011;2425;47.794;13.068;2023-04-24T03:31:06;1.20;;;1.20;;
4821;SDS011;2425;47.794;13.068;2023-04-24T03:33:33;1.00;;;1.00;;
4821;SDS011;2425;47.794;13.068;2023-04-24T03:36:01;1.37;;;1.20;;
4821;SDS011;2425;47.794;13.068;2023-04-24T03:38:27;1.27;;;1.27;;
4821;SDS011;2425;47.794;13.068;2023-04-24T03:40:55;1.53;;;1.53;;
4821;SDS011;2425;47.794;13.068;2023-04-24T03:43:22;1.20;;;1.20;;
4821;SDS011;2425;47.794;13.068;2023-04-24T03:45:49;1.37;;;1.30;;
4821;SDS011;2425;47.794;13.068;2023-04-24T03:48:15;1.00;;;1.00;;
4821;SDS011;2425;47.794;13.068;2023-04-24T03:50:42;1.20;;;1.10;;
4821;SDS011;2425;47.794;13.068;2023-04-24T03:53:09;1.00;;;1.00;;
4821;SDS011;2425;47.794;13.068;2023-04-24T03:55:36;2.30;;;1.03;;
4821;SDS011;2425;47.794;13.068;2023-04-24T03:58:04;1.20;;;1.20;;
4821;SDS011;2425;47.794;13.068;2023-04-24T04:00:31;1.30;;;1.30;;
4821;SDS011;2425;47.794;13.068;2023-04-24T04:02:58;0.90;;;0.90;;
4821;SDS011;2425;47.794;13.068;2023-04-24T04:05:25;1.10;;;1.10;;
4821;SDS011;2425;47.794;13.068;2023-04-24T04:07:51;1.30;;;1.30;;
4821;SDS011;2425;47.794;13.068;2023-04-24T04:10:18;1.37;;;1.27;;
4821;SDS011;2425;47.794;13.068;2023-04-24T04:12:45;2.60;;;1.20;;
4821;SDS011;2425;47.794;13.068;2023-04-24T04:15:13;1.23;;;1.23;;
4821;SDS011;2425;47.794;13.068;2023-04-24T04:17:39;1.17;;;1.17;;
4821;SDS011;2425;47.794;13.068;2023-04-24T04:20:07;2.10;;;1.40;;
4821;SDS011;2425;47.794;13.068;2023-04-24T04:22:34;1.20;;;1.20;;
4821;SDS011;2425;47.794;13.068;2023-04-24T04:25:01;1.17;;;1.17;;
4821;SDS011;2425;47.794;13.068;2023-04-24T04:27:28;1.10;;;1.10;;
4821;SDS011;2425;47.794;13.068;2023-04-24T04:29:57;1.10;;;1.10;;
4821;SDS011;2425;47.794;13.068;2023-04-24T04:32:25;1.40;;;1.30;;
4821;SDS011;2425;47.794;13.068;2023-04-24T04:34:52;1.13;;;1.13;;
4821;SDS011;2425;47.794;13.068;2023-04-24T04:37:19;1.07;;;1.00;;
4821;SDS011;2425;47.794;13.068;2023-04-24T04:39:46;1.20;;;1.20;;
4821;SDS011;2425;47.794;13.068;2023-04-24T04:42:12;1.00;;;1.00;;
4821;SDS011;2425;47.794;13.068;2023-04-24T04:44:40;1.17;;;1.17;;
4821;SDS011;2425;47.794;13.068;2023-04-24T04:47:07;1.50;;;1.40;;
4821;SDS011;2425;47.794;13.068;2023-04-24T04:49:37;0.90;;;0.90;;
4821;SDS011;2425;47.794;13.068;2023-04-24T04:52:04;1.10;;;1.10;;
4821;SDS011;2425;47.794;13.068;2023-04-24T04:54:31;0.97;;;0.97;;
4821;SDS011;2425;47.794;13.068;2023-04-24T04:56:57;0.83;;;0.83;;
4821;SDS011;2425;47.794;13.068;2023-04-24T04:59:25;1.00;;;1.00;;
4821;SDS011;2425;47.794;13.068;2023-04-24T05:01:52;0.90;;;0.90;;
4821;SDS011;2425;47.794;13.068;2023-04-24T05:04:19;1.00;;;1.00;;
4821;SDS011;2425;47.794;13.068;2023-04-24T05:06:47;1.00;;;1.00;;
4821;SDS011;2425;47.794;13.068;2023-04-24T05:09:13;1.10;;;1.10;;
4821;SDS011;2425;47.794;13.068;2023-04-24T05:11:40;1.43;;;1.00;;
4821;SDS011;2425;47.794;13.068;2023-04-24T05:14:07;1.20;;;1.10;;
4821;SDS011;2425;47.794;13.068;2023-04-24T05:16:33;1.07;;;1.07;;
4821;SDS011;2425;47.794;13.068;2023-04-24T05:19:01;1.00;;;1.00;;
4821;SDS011;2425;47.794;13.068;2023-04-24T05:21:28;0.93;;;0.93;;
4821;SDS011;2425;47.794;13.068;2023-04-24T05:23:57;2.00;;;1.10;;
4821;SDS011;2425;47.794;13.068;2023-04-24T05:26:23;1.20;;;1.10;;
4821;SDS011;2425;47.794;13.068;2023-04-24T05:28:50;1.23;;;1.23;;
4821;SDS011;2425;47.794;13.068;2023-04-24T05:31:17;2.57;;;1.27;;
4821;SDS011;2425;47.794;13.068;2023-04-24T05:33:44;1.00;;;1.00;;
4821;SDS011;2425;47.794;13.068;2023-04-24T05:36:10;1.17;;;1.17;;
4821;SDS011;2425;47.794;13.068;2023-04-24T05:38:37;0.90;;;0.90;;
4821;SDS011;2425;47.794;13.068;2023-04-24T05:41:05;1.13;;;1.13;;
4821;SDS011;2425;47.794;13.068;2023-04-24T05:43:32;1.03;;;1.03;;
4821;SDS011;2425;47.794;13.068;2023-04-24T05:45:58;1.13;;;1.13;;
4821;SDS011;2425;47.794;13.068;2023-04-24T05:48:25;0.90;;;0.90;;
4821;SDS011;2425;47.794;13.068;2023-04-24T05:50:52;1.10;;;1.10;;
4821;SDS011;2425;47.794;13.068;2023-04-24T05:53:18;0.87;;;0.87;;
4821;SDS011;2425;47.794;13.068;2023-04-24T05:55:45;0.87;;;0.87;;
4821;SDS011;2425;47.794;13.068;2023-04-24T05:58:14;1.00;;;1.00;;
4821;SDS011;2425;47.794;13.068;2023-04-24T06:00:41;0.93;;;0.93;;
4821;SDS011;2425;47.794;13.068;2023-04-24T06:03:08;1.00;;;1.00;;
4821;SDS011;2425;47.794;13.068;2023-04-24T06:05:35;1.00;;;1.00;;
4821;SDS011;2425;47.794;13.068;2023-04-24T06:08:01;0.87;;;0.87;;
4821;SDS011;2425;47.794;13.068;2023-04-24T06:10:28;1.27;;;1.10;;
4821;SDS011;2425;47.794;13.068;2023-04-24T06:12:55;0.90;;;0.90;;
4821;SDS011;2425;47.794;13.068;2023-04-24T06:15:26;0.90;;;0.90;;
4821;SDS011;2425;47.794;13.068;2023-04-24T06:17:54;0.90;;;0.90;;
4821;SDS011;2425;47.794;13.068;2023-04-24T06:20:21;1.00;;;1.00;;
4821;SDS011;2425;47.794;13.068;2023-04-24T06:22:48;0.83;;;0.83;;
4821;SDS011;2425;47.794;13.068;2023-04-24T06:25:14;0.83;;;0.83;;
4821;SDS011;2425;47.794;13.068;2023-04-24T06:27:41;0.97;;;0.97;;
4821;SDS011;2425;47.794;13.068;2023-04-24T06:30:08;1.10;;;1.10;;
4821;SDS011;2425;47.794;13.068;2023-04-24T06:32:37;2.50;;;0.90;;
4821;SDS011;2425;47.794;13.068;2023-04-24T06:35:04;1.00;;;1.00;;
4821;SDS011;2425;47.794;13.068;2023-04-24T06:37:32;1.17;;;1.17;;
4821;SDS011;2425;47.794;13.068;2023-04-24T06:39:59;2.20;;;2.10;;
4821;SDS011;2425;47.794;13.068;2023-04-24T06:42:25;2.73;;;2.60;;
4821;SDS011;2425;47.794;13.068;2023-04-24T06:44:52;3.40;;;2.40;;
4821;SDS011;2425;47.794;13.068;2023-04-24T06:47:19;8.23;;;2.47;;
4821;SDS011;2425;47.794;13.068;2023-04-24T06:49:47;1.90;;;1.90;;
4821;SDS011;2425;47.794;13.068;2023-04-24T06:52:16;5.10;;;2.00;;
4821;SDS011;2425;47.794;13.068;2023-04-24T06:54:42;1.93;;;1.83;;
4821;SDS011;2425;47.794;13.068;2023-04-24T06:57:09;2.43;;;2.33;;
4821;SDS011;2425;47.794;13.068;2023-04-24T06:59:40;9.33;;;8.40;;
4821;SDS011;2425;47.794;13.068;2023-04-24T07:02:16;9.27;;;8.30;;
4821;SDS011;2425;47.794;13.068;2023-04-24T07:04:42;8.50;;;7.60;;
4821;SDS011;2425;47.794;13.068;2023-04-24T07:07:13;7.37;;;6.63;;
4821;SDS011;2425;47.794;13.068;2023-04-24T07:09:40;7.83;;;6.50;;
4821;SDS011;2425;47.794;13.068;2023-04-24T07:12:07;7.27;;;6.13;;
4821;SDS011;2425;47.794;13.068;2023-04-24T07:14:35;6.43;;;5.83;;
4821;SDS011;2425;47.794;13.068;2023-04-24T07:17:02;4.60;;;3.77;;
4821;SDS011;2425;47.794;13.068;2023-04-24T07:19:29;3.50;;;3.30;;
4821;SDS011;2425;47.794;13.068;2023-04-24T07:21:55;2.93;;;2.73;;
4821;SDS011;2425;47.794;13.068;2023-04-24T07:24:24;8.87;;;7.50;;
4821;SDS011;2425;47.794;13.068;2023-04-24T07:26:51;5.87;;;5.37;;
4821;SDS011;2425;47.794;13.068;2023-04-24T07:29:18;4.43;;;4.13;;
4821;SDS011;2425;47.794;13.068;2023-04-24T07:31:46;6.03;;;3.83;;
4821;SDS011;2425;47.794;13.068;2023-04-24T07:34:12;9.20;;;4.20;;
4821;SDS011;2425;47.794;13.068;2023-04-24T07:36:40;4.20;;;3.90;;
4821;SDS011;2425;47.794;13.068;2023-04-24T07:39:07;4.17;;;3.63;;
4821;SDS011;2425;47.794;13.068;2023-04-24T07:41:35;6.50;;;3.37;;
4821;SDS011;2425;47.794;13.068;2023-04-24T07:44:02;4.60;;;3.20;;
4821;SDS011;2425;47.794;13.068;2023-04-24T07:46:29;3.87;;;3.57;;
4821;SDS011;2425;47.794;13.068;2023-04-24T07:48:56;5.97;;;3.17;;
4821;SDS011;2425;47.794;13.068;2023-04-24T07:51:24;2.70;;;2.60;;
4821;SDS011;2425;47.794;13.068;2023-04-24T07:53:52;3.80;;;2.10;;
4821;SDS011;2425;47.794;13.068;2023-04-24T07:56:19;23.50;;;18.40;;
4821;SDS011;2425;47.794;13.068;2023-04-24T07:58:47;16.63;;;10.67;;
4821;SDS011;2425;47.794;13.068;2023-04-24T08:01:14;8.77;;;6.50;;
4821;SDS011;2425;47.794;13.068;2023-04-24T08:03:41;5.20;;;4.77;;
4821;SDS011;2425;47.794;13.068;2023-04-24T08:06:07;5.30;;;4.13;;
4821;SDS011;2425;47.794;13.068;2023-04-24T08:08:34;4.50;;;4.10;;
4821;SDS011;2425;47.794;13.068;2023-04-24T08:11:01;3.70;;;2.30;;
4821;SDS011;2425;47.794;13.068;2023-04-24T08:13:27;1.97;;;1.87;;
4821;SDS011;2425;47.794;13.068;2023-04-24T08:15:56;3.07;;;2.30;;
4821;SDS011;2425;47.794;13.068;2023-04-24T08:18:22;2.73;;;2.47;;
4821;SDS011;2425;47.794;13.068;2023-04-24T08:20:49;2.97;;;2.40;;
4821;SDS011;2425;47.794;13.068;2023-04-24T08:23:16;3.53;;;2.43;;
4821;SDS011;2425;47.794;13.068;2023-04-24T08:25:42;2.50;;;2.40;;
4821;SDS011;2425;47.794;13.068;2023-04-24T08:28:09;2.90;;;2.60;;
4821;SDS011;2425;47.794;13.068;2023-04-24T08:30:36;3.00;;;2.80;;
4821;SDS011;2425;47.794;13.068;2023-04-24T08:33:05;2.40;;;2.30;;
4821;SDS011;2425;47.794;13.068;2023-04-24T08:35:32;7.03;;;2.63;;
4821;SDS011;2425;47.794;13.068;2023-04-24T08:37:58;4.63;;;2.83;;
4821;SDS011;2425;47.794;13.068;2023-04-24T08:40:27;2.40;;;2.20;;
4821;SDS011;2425;47.794;13.068;2023-04-24T08:42:55;2.50;;;2.37;;
4821;SDS011;2425;47.794;13.068;2023-04-24T08:45:22;2.47;;;2.30;;
4821;SDS011;2425;47.794;13.068;2023-04-24T08:47:51;2.43;;;2.23;;
4821;SDS011;2425;47.794;13.068;2023-04-24T08:50:21;5.20;;;2.20;;
4821;SDS011;2425;47.794;13.068;2023-04-24T08:52:49;2.30;;;2.10;;
4821;SDS011;2425;47.794;13.068;2023-04-24T08:55:18;2.23;;;2.13;;
4821;SDS011;2425;47.794;13.068;2023-04-24T08:57:45;4.50;;;2.33;;
4821;SDS011;2425;47.794;13.068;2023-04-24T09:00:17;2.53;;;2.40;;
4821;SDS011;2425;47.794;13.068;2023-04-24T09:02:44;6.40;;;2.10;;
4821;SDS011;2425;47.794;13.068;2023-04-24T09:05:12;3.13;;;2.83;;
4821;SDS011;2425;47.794;13.068;2023-04-24T09:07:40;2.33;;;2.13;;
4821;SDS011;2425;47.794;13.068;2023-04-24T09:10:09;2.60;;;2.40;;
4821;SDS011;2425;47.794;13.068;2023-04-24T09:12:37;2.30;;;2.20;;
4821;SDS011;2425;47.794;13.068;2023-04-24T09:15:04;2.50;;;2.40;;
4821;SDS011;2425;47.794;13.068;2023-04-24T09:17:31;2.40;;;2.30;;
4821;SDS011;2425;47.794;13.068;2023-04-24T09:19:59;2.67;;;2.47;;
4821;SDS011;2425;47.794;13.068;2023-04-24T09:22:25;2.10;;;2.00;;
4821;SDS011;2425;47.794;13.068;2023-04-24T09:25:00;2.00;;;1.93;;
4821;SDS011;2425;47.794;13.068;2023-04-24T09:27:28;2.10;;;1.97;;
4821;SDS011;2425;47.794;13.068;2023-04-24T09:29:55;2.83;;;2.17;;
4821;SDS011;2425;47.794;13.068;2023-04-24T09:32:23;1.83;;;1.73;;
4821;SDS011;2425;47.794;13.068;2023-04-24T09:35:04;2.27;;;2.17;;
4821;SDS011;2425;47.794;13.068;2023-04-24T09:37:34;3.23;;;1.97;;
4821;SDS011;2425;47.794;13.068;2023-04-24T09:40:09;1.80;;;1.80;;
4821;SDS011;2425;47.794;13.068;2023-04-24T09:42:37;2.10;;;2.00;;
4821;SDS011;2425;47.794;13.068;2023-04-24T09:45:05;4.13;;;2.43;;
4821;SDS011;2425;47.794;13.068;2023-04-24T09:47:35;2.30;;;2.20;;
4821;SDS011;2425;47.794;13.068;2023-04-24T09:50:08;2.03;;;1.93;;
4821;SDS011;2425;47.794;13.068;2023-04-24T09:52:36;2.10;;;2.00;;
4821;SDS011;2425;47.794;13.068;2023-04-24T09:55:11;1.77;;;1.77;;
4821;SDS011;2425;47.794;13.068;2023-04-24T09:57:46;2.63;;;2.40;;
4821;SDS011;2425;47.794;13.068;2023-04-24T10:00:17;2.50;;;2.30;;
4821;SDS011;2425;47.794;13.068;2023-04-24T10:02:49;2.17;;;2.07;;
4821;SDS011;2425;47.794;13.068;2023-04-24T10:05:16;3.00;;;2.70;;
4821;SDS011;2425;47.794;13.068;2023-04-24T10:07:43;3.80;;;1.90;;
4821;SDS011;2425;47.794;13.068;2023-04-24T10:10:11;3.90;;;3.57;;
4821;SDS011;2425;47.794;13.068;2023-04-24T10:12:38;12.93;;;11.10;;
4821;SDS011;2425;47.794;13.068;2023-04-24T10:15:06;6.30;;;5.70;;
4821;SDS011;2425;47.794;13.068;2023-04-24T10:17:34;7.27;;;4.07;;
4821;SDS011;2425;47.794;13.068;2023-04-24T10:20:01;4.73;;;4.07;;
4821;SDS011;2425;47.794;13.068;2023-04-24T10:22:28;8.80;;;3.47;;
4821;SDS011;2425;47.794;13.068;2023-04-24T10:24:55;3.80;;;3.50;;
4821;SDS011;2425;47.794;13.068;2023-04-24T10:27:23;2.80;;;2.70;;
4821;SDS011;2425;47.794;13.068;2023-04-24T10:29:51;6.63;;;2.37;;
4821;SDS011;2425;47.794;13.068;2023-04-24T10:32:19;3.50;;;3.20;;
4821;SDS011;2425;47.794;13.068;2023-04-24T10:34:46;2.50;;;2.40;;
4821;SDS011;2425;47.794;13.068;2023-04-24T10:37:13;3.80;;;1.93;;
4821;SDS011;2425;47.794;13.068;2023-04-24T10:39:40;2.30;;;2.20;;
4821;SDS011;2425;47.794;13.068;2023-04-24T10:42:13;1.57;;;1.57;;
4821;SDS011;2425;47.794;13.068;2023-04-24T10:44:42;5.13;;;4.67;;
4821;SDS011;2425;47.794;13.068;2023-04-24T10:47:12;3.50;;;3.20;;
4821;SDS011;2425;47.794;13.068;2023-04-24T10:49:40;3.80;;;2.70;;
4821;SDS011;2425;47.794;13.068;2023-04-24T10:52:08;2.17;;;2.07;;
4821;SDS011;2425;47.794;13.068;2023-04-24T10:54:36;2.37;;;2.20;;
4821;SDS011;2425;47.794;13.068;2023-04-24T10:57:25;2.00;;;1.90;;
4821;SDS011;2425;47.794;13.068;2023-04-24T11:02:48;1.73;;;1.70;;
4821;SDS011;2425;47.794;13.068;2023-04-24T11:05:18;2.17;;;2.07;;
4821;SDS011;2425;47.794;13.068;2023-04-24T11:10:43;10.47;;;2.27;;
4821;SDS011;2425;47.794;13.068;2023-04-24T11:13:14;1.93;;;1.87;;
4821;SDS011;2425;47.794;13.068;2023-04-24T11:15:42;3.13;;;2.33;;
4821;SDS011;2425;47.794;13.068;2023-04-24T11:18:14;2.20;;;1.93;;
4821;SDS011;2425;47.794;13.068;2023-04-24T11:20:42;1.80;;;1.80;;
4821;SDS011;2425;47.794;13.068;2023-04-24T11:23:11;1.50;;;1.50;;
4821;SDS011;2425;47.794;13.068;2023-04-24T11:25:39;2.00;;;1.90;;
4821;SDS011;2425;47.794;13.068;2023-04-24T11:28:06;1.40;;;1.40;;
4821;SDS011;2425;47.794;13.068;2023-04-24T11:30:33;5.00;;;2.00;;
4821;SDS011;2425;47.794;13.068;2023-04-24T11:33:03;1.70;;;1.70;;
4821;SDS011;2425;47.794;13.068;2023-04-24T11:35:36;2.03;;;1.87;;
4821;SDS011;2425;47.794;13.068;2023-04-24T11:38:06;2.00;;;1.90;;
4821;SDS011;2425;47.794;13.068;2023-04-24T11:40:33;4.70;;;1.97;;
4821;SDS011;2425;47.794;13.068;2023-04-24T11:43:00;1.63;;;1.53;;
4821;SDS011;2425;47.794;13.068;2023-04-24T11:45:29;5.20;;;1.27;;
4821;SDS011;2425;47.794;13.068;2023-04-24T11:47:57;5.33;;;4.83;;
4821;SDS011;2425;47.794;13.068;2023-04-24T11:50:25;4.07;;;3.77;;
4821;SDS011;2425;47.794;13.068;2023-04-24T11:52:56;2.40;;;2.30;;
4821;SDS011;2425;47.794;13.068;2023-04-24T11:55:25;1.80;;;1.60;;
4821;SDS011;2425;47.794;13.068;2023-04-24T11:57:53;1.57;;;1.57;;
4821;SDS011;2425;47.794;13.068;2023-04-24T12:00:23;1.43;;;1.43;;
4821;SDS011;2425;47.794;13.068;2023-04-24T12:02:51;1.60;;;1.53;;
4821;SDS011;2425;47.794;13.068;2023-04-24T12:05:21;2.60;;;1.90;;
4821;SDS011;2425;47.794;13.068;2023-04-24T12:07:48;3.20;;;2.17;;
4821;SDS011;2425;47.794;13.068;2023-04-24T12:10:20;1.90;;;1.53;;
4821;SDS011;2425;47.794;13.068;2023-04-24T12:12:48;1.87;;;1.77;;
4821;SDS011;2425;47.794;13.068;2023-04-24T12:15:16;3.23;;;1.50;;
4821;SDS011;2425;47.794;13.068;2023-04-24T12:17:44;1.87;;;1.77;;
4821;SDS011;2425;47.794;13.068;2023-04-24T12:20:12;1.73;;;1.63;;
4821;SDS011;2425;47.794;13.068;2023-04-24T12:22:46;2.93;;;1.90;;
4821;SDS011;2425;47.794;13.068;2023-04-24T12:25:13;1.60;;;1.50;;
4821;SDS011;2425;47.794;13.068;2023-04-24T12:27:44;1.60;;;1.50;;
4821;SDS011;2425;47.794;13.068;2023-04-24T12:30:12;1.97;;;1.87;;
4821;SDS011;2425;47.794;13.068;2023-04-24T12:32:43;1.40;;;1.30;;
4821;SDS011;2425;47.794;13.068;2023-04-24T12:35:11;1.73;;;1.70;;
4821;SDS011;2425;47.794;13.068;2023-04-24T12:37:38;6.40;;;1.77;;
4821;SDS011;2425;47.794;13.068;2023-04-24T12:40:07;1.63;;;1.60;;
4821;SDS011;2425;47.794;13.068;2023-04-24T12:42:36;1.37;;;1.37;;
4821;SDS011;2425;47.794;13.068;2023-04-24T12:45:10;4.20;;;1.40;;
4821;SDS011;2425;47.794;13.068;2023-04-24T12:47:38;6.53;;;1.40;;
4821;SDS011;2425;47.794;13.068;2023-04-24T12:50:05;1.30;;;1.30;;
4821;SDS011;2425;47.794;13.068;2023-04-24T12:52:33;3.17;;;2.73;;
4821;SDS011;2425;47.794;13.068;2023-04-24T12:55:00;3.17;;;1.73;;
4821;SDS011;2425;47.794;13.068;2023-04-24T12:57:28;1.20;;;1.20;;
4821;SDS011;2425;47.794;13.068;2023-04-24T12:59:57;3.67;;;1.57;;
4821;SDS011;2425;47.794;13.068;2023-04-24T13:02:26;1.40;;;1.40;;
4821;SDS011;2425;47.794;13.068;2023-04-24T13:04:54;1.37;;;1.37;;
4821;SDS011;2425;47.794;13.068;2023-04-24T13:07:21;1.50;;;1.40;;
4821;SDS011;2425;47.794;13.068;2023-04-24T13:09:48;1.40;;;1.30;;
4821;SDS011;2425;47.794;13.068;2023-04-24T13:12:15;1.20;;;1.20;;
4821;SDS011;2425;47.794;13.068;2023-04-24T13:14:42;2.40;;;1.50;;
4821;SDS011;2425;47.794;13.068;2023-04-24T13:17:09;1.57;;;1.47;;
4821;SDS011;2425;47.794;13.068;2023-04-24T13:19:38;2.70;;;1.80;;
4821;SDS011;2425;47.794;13.068;2023-04-24T13:22:06;2.20;;;1.43;;
4821;SDS011;2425;47.794;13.068;2023-04-24T13:24:34;2.30;;;1.47;;
4821;SDS011;2425;47.794;13.068;2023-04-24T13:27:01;1.20;;;1.20;;
4821;SDS011;2425;47.794;13.068;2023-04-24T13:29:28;1.23;;;1.23;;
4821;SDS011;2425;47.794;13.068;2023-04-24T13:31:55;7.50;;;1.30;;
4821;SDS011;2425;47.794;13.068;2023-04-24T13:34:21;1.80;;;1.80;;
4821;SDS011;2425;47.794;13.068;2023-04-24T13:36:50;4.83;;;1.60;;
4821;SDS011;2425;47.794;13.068;2023-04-24T13:39:17;1.27;;;1.23;;
4821;SDS011;2425;47.794;13.068;2023-04-24T13:41:44;8.00;;;1.00;;
4821;SDS011;2425;47.794;13.068;2023-04-24T13:44:12;1.53;;;1.00;;
4821;SDS011;2425;47.794;13.068;2023-04-24T13:46:39;3.43;;;1.40;;
4821;SDS011;2425;47.794;13.068;2023-04-24T13:49:06;2.00;;;1.17;;
4821;SDS011;2425;47.794;13.068;2023-04-24T13:51:33;1.30;;;1.20;;
4821;SDS011;2425;47.794;13.068;2023-04-24T13:54:01;4.60;;;1.57;;
4821;SDS011;2425;47.794;13.068;2023-04-24T13:56:27;5.93;;;1.57;;
4821;SDS011;2425;47.794;13.068;2023-04-24T13:58:54;5.23;;;1.87;;
4821;SDS011;2425;47.794;13.068;2023-04-24T14:01:22;3.23;;;1.60;;
4821;SDS011;2425;47.794;13.068;2023-04-24T14:03:49;4.50;;;1.53;;
4821;SDS011;2425;47.794;13.068;2023-04-24T14:06:17;4.93;;;1.53;;
4821;SDS011;2425;47.794;13.068;2023-04-24T14:08:43;4.50;;;1.30;;
4821;SDS011;2425;47.794;13.068;2023-04-24T14:11:12;5.73;;;1.40;;
4821;SDS011;2425;47.794;13.068;2023-04-24T14:13:39;6.10;;;5.50;;
4821;SDS011;2425;47.794;13.068;2023-04-24T14:16:07;3.37;;;2.43;;
4821;SDS011;2425;47.794;13.068;2023-04-24T14:18:34;4.10;;;1.70;;
4821;SDS011;2425;47.794;13.068;2023-04-24T14:21:01;1.33;;;1.23;;
4821;SDS011;2425;47.794;13.068;2023-04-24T14:23:28;1.40;;;1.33;;
4821;SDS011;2425;47.794;13.068;2023-04-24T14:25:54;1.17;;;0.90;;
4821;SDS011;2425;47.794;13.068;2023-04-24T14:28:22;2.40;;;1.33;;
4821;SDS011;2425;47.794;13.068;2023-04-24T14:30:49;1.20;;;1.10;;
4821;SDS011;2425;47.794;13.068;2023-04-24T14:33:16;5.20;;;1.30;;
4821;SDS011;2425;47.794;13.068;2023-04-24T14:35:43;3.33;;;1.30;;
4821;SDS011;2425;47.794;13.068;2023-04-24T14:38:10;1.40;;;1.30;;
4821;SDS011;2425;47.794;13.068;2023-04-24T14:40:37;1.30;;;1.30;;
4821;SDS011;2425;47.794;13.068;2023-04-24T14:43:04;1.00;;;1.00;;
4821;SDS011;2425;47.794;13.068;2023-04-24T14:45:32;1.30;;;1.20;;
4821;SDS011;2425;47.794;13.068;2023-04-24T14:47:59;1.67;;;1.57;;
4821;SDS011;2425;47.794;13.068;2023-04-24T14:50:26;1.40;;;1.00;;
4821;SDS011;2425;47.794;13.068;2023-04-24T14:52:53;2.60;;;1.10;;
4821;SDS011;2425;47.794;13.068;2023-04-24T14:55:22;16.03;;;1.50;;
4821;SDS011;2425;47.794;13.068;2023-04-24T14:57:49;0.87;;;0.87;;
4821;SDS011;2425;47.794;13.068;2023-04-24T15:00:16;1.23;;;1.13;;
4821;SDS011;2425;47.794;13.068;2023-04-24T15:02:45;1.17;;;1.17;;
4821;SDS011;2425;47.794;13.068;2023-04-24T15:05:11;1.37;;;1.17;;
4821;SDS011;2425;47.794;13.068;2023-04-24T15:07:38;1.50;;;1.40;;
4821;SDS011;2425;47.794;13.068;2023-04-24T15:10:07;1.43;;;1.20;;